Terminal Aerodrome Forecast
Issued by NWS Wilmington, OH

Current Version | Previous Version | Text Only | Print | Product List | Glossary Off
Versions: 1 2 3 4 5 6 7 8 9 10 11 12 13 14 15 16 17 18 19 20 21 22 23 24 25 26

000
FTUS41 KILN 050153 AAA
TAFDAY
TAF AMD
KDAY 050153Z 0502/0524 33012KT P6SM OVC040
     FM050400 33012KT P6SM OVC010
     FM050600 34010KT P6SM OVC006
     FM051300 36011KT P6SM BKN025
     FM052000 01016G25KT P6SM BKN045=

USA.gov is the U.S. government's official web portal to all federal, state and local government web resources and services.